sensor_id;sensor_type;location;lat;lon;timestamp;P1;durP1;ratioP1;P2;durP2;ratioP2
36415;SDS011;22447;44.530;18.620;2022-12-15T00:02:00;393.08;;;152.48;;
36415;SDS011;22447;44.530;18.620;2022-12-15T00:04:44;374.95;;;147.77;;
36415;SDS011;22447;44.530;18.620;2022-12-15T00:07:29;359.95;;;143.68;;
36415;SDS011;22447;44.530;18.620;2022-12-15T00:10:13;359.40;;;139.80;;
36415;SDS011;22447;44.530;18.620;2022-12-15T00:12:58;351.95;;;140.00;;
36415;SDS011;22447;44.530;18.620;2022-12-15T00:15:44;337.90;;;134.90;;
36415;SDS011;22447;44.530;18.620;2022-12-15T00:18:32;362.13;;;146.77;;
36415;SDS011;22447;44.530;18.620;2022-12-15T00:21:17;314.75;;;133.32;;
36415;SDS011;22447;44.530;18.620;2022-12-15T00:24:01;329.85;;;136.70;;
36415;SDS011;22447;44.530;18.620;2022-12-15T00:26:46;327.10;;;137.70;;
36415;SDS011;22447;44.530;18.620;2022-12-15T00:29:30;292.70;;;130.55;;
36415;SDS011;22447;44.530;18.620;2022-12-15T00:32:15;329.92;;;140.27;;
36415;SDS011;22447;44.530;18.620;2022-12-15T00:34:59;304.10;;;134.05;;
36415;SDS011;22447;44.530;18.620;2022-12-15T00:37:44;306.73;;;134.10;;
36415;SDS011;22447;44.530;18.620;2022-12-15T00:40:28;308.77;;;136.93;;
36415;SDS011;22447;44.530;18.620;2022-12-15T00:42:54;335.20;;;146.18;;
36415;SDS011;22447;44.530;18.620;2022-12-15T00:45:20;368.20;;;149.80;;
36415;SDS011;22447;44.530;18.620;2022-12-15T00:48:06;396.70;;;155.20;;
36415;SDS011;22447;44.530;18.620;2022-12-15T00:50:32;417.95;;;161.55;;
36415;SDS011;22447;44.530;18.620;2022-12-15T00:53:16;367.63;;;149.63;;
36415;SDS011;22447;44.530;18.620;2022-12-15T00:56:01;337.90;;;141.57;;
36415;SDS011;22447;44.530;18.620;2022-12-15T00:58:45;344.27;;;141.73;;
36415;SDS011;22447;44.530;18.620;2022-12-15T01:01:30;354.30;;;143.90;;
36415;SDS011;22447;44.530;18.620;2022-12-15T01:04:14;342.00;;;138.02;;
36415;SDS011;22447;44.530;18.620;2022-12-15T01:06:59;332.60;;;138.38;;
36415;SDS011;22447;44.530;18.620;2022-12-15T01:09:44;311.10;;;131.40;;
36415;SDS011;22447;44.530;18.620;2022-12-15T01:12:28;344.77;;;140.85;;
36415;SDS011;22447;44.530;18.620;2022-12-15T01:15:13;355.35;;;143.35;;
36415;SDS011;22447;44.530;18.620;2022-12-15T01:17:57;312.05;;;132.93;;
36415;SDS011;22447;44.530;18.620;2022-12-15T01:20:42;305.02;;;129.10;;
36415;SDS011;22447;44.530;18.620;2022-12-15T01:23:08;317.45;;;130.20;;
36415;SDS011;22447;44.530;18.620;2022-12-15T01:25:34;385.48;;;148.60;;
36415;SDS011;22447;44.530;18.620;2022-12-15T01:28:03;352.35;;;143.65;;
36415;SDS011;22447;44.530;18.620;2022-12-15T01:30:29;346.10;;;141.05;;
36415;SDS011;22447;44.530;18.620;2022-12-15T01:32:55;313.13;;;132.07;;
36415;SDS011;22447;44.530;18.620;2022-12-15T01:35:21;459.77;;;191.38;;
36415;SDS011;22447;44.530;18.620;2022-12-15T01:37:47;399.05;;;161.35;;
36415;SDS011;22447;44.530;18.620;2022-12-15T01:40:14;383.52;;;154.43;;
36415;SDS011;22447;44.530;18.620;2022-12-15T01:43:00;410.60;;;166.68;;
36415;SDS011;22447;44.530;18.620;2022-12-15T01:48:05;402.10;;;163.68;;
36415;SDS011;22447;44.530;18.620;2022-12-15T01:50:36;424.75;;;176.90;;
36415;SDS011;22447;44.530;18.620;2022-12-15T01:53:06;380.35;;;155.45;;
36415;SDS011;22447;44.530;18.620;2022-12-15T01:55:33;378.48;;;161.10;;
36415;SDS011;22447;44.530;18.620;2022-12-15T01:58:00;357.75;;;149.20;;
36415;SDS011;22447;44.530;18.620;2022-12-15T02:00:31;362.10;;;155.05;;
36415;SDS011;22447;44.530;18.620;2022-12-15T02:02:57;345.40;;;142.27;;
36415;SDS011;22447;44.530;18.620;2022-12-15T02:05:26;339.52;;;147.82;;
36415;SDS011;22447;44.530;18.620;2022-12-15T02:07:54;435.27;;;200.88;;
36415;SDS011;22447;44.530;18.620;2022-12-15T02:10:20;399.58;;;180.48;;
36415;SDS011;22447;44.530;18.620;2022-12-15T02:15:33;360.02;;;159.77;;
36415;SDS011;22447;44.530;18.620;2022-12-15T02:18:12;404.23;;;185.25;;
36415;SDS011;22447;44.530;18.620;2022-12-15T02:20:52;371.60;;;152.27;;
36415;SDS011;22447;44.530;18.620;2022-12-15T02:29:09;390.88;;;156.00;;
36415;SDS011;22447;44.530;18.620;2022-12-15T02:31:48;349.15;;;147.52;;
36415;SDS011;22447;44.530;18.620;2022-12-15T02:39:57;386.23;;;157.20;;
36415;SDS011;22447;44.530;18.620;2022-12-15T02:42:24;364.13;;;149.38;;
36415;SDS011;22447;44.530;18.620;2022-12-15T02:55:52;340.48;;;139.88;;
36415;SDS011;22447;44.530;18.620;2022-12-15T03:03:42;357.27;;;145.15;;
36415;SDS011;22447;44.530;18.620;2022-12-15T03:06:09;358.45;;;143.15;;
36415;SDS011;22447;44.530;18.620;2022-12-15T03:08:35;352.08;;;144.32;;
36415;SDS011;22447;44.530;18.620;2022-12-15T03:11:01;405.33;;;152.70;;
36415;SDS011;22447;44.530;18.620;2022-12-15T03:13:27;427.55;;;158.95;;
36415;SDS011;22447;44.530;18.620;2022-12-15T03:15:53;441.45;;;166.88;;
36415;SDS011;22447;44.530;18.620;2022-12-15T03:18:19;495.20;;;172.70;;
36415;SDS011;22447;44.530;18.620;2022-12-15T03:20:48;488.27;;;169.80;;
36415;SDS011;22447;44.530;18.620;2022-12-15T03:23:14;429.63;;;158.20;;
36415;SDS011;22447;44.530;18.620;2022-12-15T03:25:40;443.20;;;159.82;;
36415;SDS011;22447;44.530;18.620;2022-12-15T03:28:08;440.17;;;160.43;;
36415;SDS011;22447;44.530;18.620;2022-12-15T03:30:34;482.42;;;171.10;;
36415;SDS011;22447;44.530;18.620;2022-12-15T03:33:00;486.52;;;168.45;;
36415;SDS011;22447;44.530;18.620;2022-12-15T03:35:26;466.35;;;171.20;;
36415;SDS011;22447;44.530;18.620;2022-12-15T03:37:52;506.17;;;176.20;;
36415;SDS011;22447;44.530;18.620;2022-12-15T03:40:18;475.33;;;171.43;;
36415;SDS011;22447;44.530;18.620;2022-12-15T03:42:43;500.42;;;169.75;;
36415;SDS011;22447;44.530;18.620;2022-12-15T03:45:16;553.15;;;180.88;;
36415;SDS011;22447;44.530;18.620;2022-12-15T03:47:44;523.92;;;173.60;;
36415;SDS011;22447;44.530;18.620;2022-12-15T03:50:11;500.90;;;172.50;;
36415;SDS011;22447;44.530;18.620;2022-12-15T03:52:38;473.00;;;163.27;;
36415;SDS011;22447;44.530;18.620;2022-12-15T03:55:04;517.65;;;173.27;;
36415;SDS011;22447;44.530;18.620;2022-12-15T03:57:31;482.77;;;168.27;;
36415;SDS011;22447;44.530;18.620;2022-12-15T03:59:58;519.05;;;167.38;;
36415;SDS011;22447;44.530;18.620;2022-12-15T04:02:23;510.02;;;171.95;;
36415;SDS011;22447;44.530;18.620;2022-12-15T04:04:49;521.00;;;171.48;;
36415;SDS011;22447;44.530;18.620;2022-12-15T04:07:15;550.92;;;176.10;;
36415;SDS011;22447;44.530;18.620;2022-12-15T04:09:41;574.22;;;175.95;;
36415;SDS011;22447;44.530;18.620;2022-12-15T04:12:09;587.50;;;180.60;;
36415;SDS011;22447;44.530;18.620;2022-12-15T04:14:36;605.15;;;192.25;;
36415;SDS011;22447;44.530;18.620;2022-12-15T04:19:35;559.15;;;177.95;;
36415;SDS011;22447;44.530;18.620;2022-12-15T04:22:20;528.60;;;171.85;;
36415;SDS011;22447;44.530;18.620;2022-12-15T04:24:46;551.83;;;182.27;;
36415;SDS011;22447;44.530;18.620;2022-12-15T04:27:30;610.08;;;185.35;;
36415;SDS011;22447;44.530;18.620;2022-12-15T04:30:15;734.65;;;197.45;;
36415;SDS011;22447;44.530;18.620;2022-12-15T04:32:59;773.22;;;188.50;;
36415;SDS011;22447;44.530;18.620;2022-12-15T04:35:45;581.42;;;164.57;;
36415;SDS011;22447;44.530;18.620;2022-12-15T04:38:31;519.20;;;159.93;;
36415;SDS011;22447;44.530;18.620;2022-12-15T04:41:16;452.42;;;137.73;;
36415;SDS011;22447;44.530;18.620;2022-12-15T04:44:02;504.10;;;143.00;;
36415;SDS011;22447;44.530;18.620;2022-12-15T04:46:46;340.15;;;116.93;;
36415;SDS011;22447;44.530;18.620;2022-12-15T04:49:31;306.10;;;108.85;;
36415;SDS011;22447;44.530;18.620;2022-12-15T04:52:16;335.98;;;113.93;;
36415;SDS011;22447;44.530;18.620;2022-12-15T04:55:00;297.45;;;110.30;;
36415;SDS011;22447;44.530;18.620;2022-12-15T04:57:45;425.10;;;128.32;;
36415;SDS011;22447;44.530;18.620;2022-12-15T05:00:29;287.98;;;108.18;;
36415;SDS011;22447;44.530;18.620;2022-12-15T05:03:14;257.35;;;102.05;;
36415;SDS011;22447;44.530;18.620;2022-12-15T05:05:59;257.40;;;105.57;;
36415;SDS011;22447;44.530;18.620;2022-12-15T05:08:43;247.40;;;99.03;;
36415;SDS011;22447;44.530;18.620;2022-12-15T05:11:28;221.98;;;93.13;;
36415;SDS011;22447;44.530;18.620;2022-12-15T05:14:12;207.52;;;92.10;;
36415;SDS011;22447;44.530;18.620;2022-12-15T05:16:57;234.75;;;91.15;;
36415;SDS011;22447;44.530;18.620;2022-12-15T05:19:42;268.25;;;103.72;;
36415;SDS011;22447;44.530;18.620;2022-12-15T05:22:26;237.75;;;98.82;;
36415;SDS011;22447;44.530;18.620;2022-12-15T05:25:11;210.43;;;91.55;;
36415;SDS011;22447;44.530;18.620;2022-12-15T05:27:55;241.32;;;94.80;;
36415;SDS011;22447;44.530;18.620;2022-12-15T05:30:40;187.75;;;80.85;;
36415;SDS011;22447;44.530;18.620;2022-12-15T05:33:24;299.55;;;89.80;;
36415;SDS011;22447;44.530;18.620;2022-12-15T05:35:50;240.20;;;82.00;;
36415;SDS011;22447;44.530;18.620;2022-12-15T05:38:16;264.98;;;94.20;;
36415;SDS011;22447;44.530;18.620;2022-12-15T05:40:42;256.58;;;94.05;;
36415;SDS011;22447;44.530;18.620;2022-12-15T05:43:08;217.07;;;88.88;;
36415;SDS011;22447;44.530;18.620;2022-12-15T05:45:34;222.90;;;89.43;;
36415;SDS011;22447;44.530;18.620;2022-12-15T05:48:00;286.55;;;96.85;;
36415;SDS011;22447;44.530;18.620;2022-12-15T05:50:26;308.55;;;104.97;;
36415;SDS011;22447;44.530;18.620;2022-12-15T05:52:52;213.75;;;86.95;;
36415;SDS011;22447;44.530;18.620;2022-12-15T05:55:18;214.57;;;86.63;;
36415;SDS011;22447;44.530;18.620;2022-12-15T05:57:49;223.93;;;88.97;;
36415;SDS011;22447;44.530;18.620;2022-12-15T06:00:17;207.13;;;87.20;;
36415;SDS011;22447;44.530;18.620;2022-12-15T06:02:43;367.88;;;104.57;;
36415;SDS011;22447;44.530;18.620;2022-12-15T06:05:09;284.00;;;98.88;;
36415;SDS011;22447;44.530;18.620;2022-12-15T06:07:35;199.30;;;78.55;;
36415;SDS011;22447;44.530;18.620;2022-12-15T06:10:01;199.55;;;79.63;;
36415;SDS011;22447;44.530;18.620;2022-12-15T06:12:28;197.80;;;77.38;;
36415;SDS011;22447;44.530;18.620;2022-12-15T06:14:54;225.57;;;86.35;;
36415;SDS011;22447;44.530;18.620;2022-12-15T06:17:20;156.38;;;65.03;;
36415;SDS011;22447;44.530;18.620;2022-12-15T06:19:46;143.93;;;61.63;;
36415;SDS011;22447;44.530;18.620;2022-12-15T06:22:12;136.60;;;61.78;;
36415;SDS011;22447;44.530;18.620;2022-12-15T06:24:38;147.10;;;63.53;;
36415;SDS011;22447;44.530;18.620;2022-12-15T06:27:04;157.32;;;67.15;;
36415;SDS011;22447;44.530;18.620;2022-12-15T06:29:30;134.75;;;61.45;;
36415;SDS011;22447;44.530;18.620;2022-12-15T06:31:56;126.63;;;58.90;;
36415;SDS011;22447;44.530;18.620;2022-12-15T06:34:21;129.02;;;59.85;;
36415;SDS011;22447;44.530;18.620;2022-12-15T06:36:51;133.43;;;57.25;;
36415;SDS011;22447;44.530;18.620;2022-12-15T06:39:17;136.02;;;60.65;;
36415;SDS011;22447;44.530;18.620;2022-12-15T06:41:43;194.30;;;69.20;;
36415;SDS011;22447;44.530;18.620;2022-12-15T06:44:13;162.55;;;63.97;;
36415;SDS011;22447;44.530;18.620;2022-12-15T06:46:40;153.07;;;63.42;;
36415;SDS011;22447;44.530;18.620;2022-12-15T06:49:06;142.43;;;64.10;;
36415;SDS011;22447;44.530;18.620;2022-12-15T06:51:33;154.50;;;66.95;;
36415;SDS011;22447;44.530;18.620;2022-12-15T06:54:08;148.35;;;64.95;;
36415;SDS011;22447;44.530;18.620;2022-12-15T06:56:38;142.70;;;64.55;;
36415;SDS011;22447;44.530;18.620;2022-12-15T06:59:05;170.45;;;67.90;;
36415;SDS011;22447;44.530;18.620;2022-12-15T07:01:31;162.80;;;68.57;;
36415;SDS011;22447;44.530;18.620;2022-12-15T07:03:57;157.88;;;67.95;;
36415;SDS011;22447;44.530;18.620;2022-12-15T07:06:35;159.57;;;65.60;;
36415;SDS011;22447;44.530;18.620;2022-12-15T07:09:02;158.63;;;64.85;;
36415;SDS011;22447;44.530;18.620;2022-12-15T07:11:32;222.20;;;76.75;;
36415;SDS011;22447;44.530;18.620;2022-12-15T07:13:59;155.68;;;67.03;;
36415;SDS011;22447;44.530;18.620;2022-12-15T07:16:25;163.77;;;70.82;;
36415;SDS011;22447;44.530;18.620;2022-12-15T07:18:51;149.93;;;65.35;;
36415;SDS011;22447;44.530;18.620;2022-12-15T07:21:35;194.88;;;73.13;;
36415;SDS011;22447;44.530;18.620;2022-12-15T07:24:01;201.23;;;76.55;;
36415;SDS011;22447;44.530;18.620;2022-12-15T07:26:27;172.55;;;73.22;;
36415;SDS011;22447;44.530;18.620;2022-12-15T07:28:53;175.98;;;73.97;;
36415;SDS011;22447;44.530;18.620;2022-12-15T07:31:21;200.38;;;78.07;;
36415;SDS011;22447;44.530;18.620;2022-12-15T07:33:48;230.80;;;78.53;;
36415;SDS011;22447;44.530;18.620;2022-12-15T07:36:16;205.50;;;80.75;;
36415;SDS011;22447;44.530;18.620;2022-12-15T07:38:42;213.15;;;82.13;;
36415;SDS011;22447;44.530;18.620;2022-12-15T07:41:09;169.27;;;70.53;;
36415;SDS011;22447;44.530;18.620;2022-12-15T07:43:36;232.25;;;79.07;;
36415;SDS011;22447;44.530;18.620;2022-12-15T07:46:02;169.02;;;69.07;;
36415;SDS011;22447;44.530;18.620;2022-12-15T07:48:29;202.40;;;73.72;;
36415;SDS011;22447;44.530;18.620;2022-12-15T07:50:55;219.75;;;80.07;;
36415;SDS011;22447;44.530;18.620;2022-12-15T07:53:25;220.88;;;75.82;;
36415;SDS011;22447;44.530;18.620;2022-12-15T07:55:55;192.65;;;77.35;;
36415;SDS011;22447;44.530;18.620;2022-12-15T07:58:26;207.65;;;76.00;;
36415;SDS011;22447;44.530;18.620;2022-12-15T08:00:53;223.15;;;80.72;;
36415;SDS011;22447;44.530;18.620;2022-12-15T08:03:23;171.45;;;71.43;;
36415;SDS011;22447;44.530;18.620;2022-12-15T08:05:49;163.40;;;65.38;;
36415;SDS011;22447;44.530;18.620;2022-12-15T08:08:15;148.30;;;62.45;;
36415;SDS011;22447;44.530;18.620;2022-12-15T08:10:42;143.23;;;58.20;;
36415;SDS011;22447;44.530;18.620;2022-12-15T08:13:08;131.85;;;59.53;;
36415;SDS011;22447;44.530;18.620;2022-12-15T08:15:35;171.98;;;69.70;;
36415;SDS011;22447;44.530;18.620;2022-12-15T08:18:02;154.82;;;63.03;;
36415;SDS011;22447;44.530;18.620;2022-12-15T08:20:29;146.20;;;66.88;;
36415;SDS011;22447;44.530;18.620;2022-12-15T08:22:55;166.68;;;66.68;;
36415;SDS011;22447;44.530;18.620;2022-12-15T08:25:21;167.60;;;71.32;;
36415;SDS011;22447;44.530;18.620;2022-12-15T08:27:50;146.57;;;65.45;;
36415;SDS011;22447;44.530;18.620;2022-12-15T08:30:16;139.73;;;61.55;;
36415;SDS011;22447;44.530;18.620;2022-12-15T08:32:44;127.82;;;58.90;;
36415;SDS011;22447;44.530;18.620;2022-12-15T08:35:13;128.55;;;59.50;;
36415;SDS011;22447;44.530;18.620;2022-12-15T08:37:43;144.38;;;62.05;;
36415;SDS011;22447;44.530;18.620;2022-12-15T08:40:09;159.23;;;65.88;;
36415;SDS011;22447;44.530;18.620;2022-12-15T08:42:36;164.55;;;67.85;;
36415;SDS011;22447;44.530;18.620;2022-12-15T08:45:14;154.00;;;66.32;;
36415;SDS011;22447;44.530;18.620;2022-12-15T08:47:40;133.40;;;61.63;;
36415;SDS011;22447;44.530;18.620;2022-12-15T08:50:06;142.90;;;61.85;;
36415;SDS011;22447;44.530;18.620;2022-12-15T08:52:33;145.15;;;65.22;;
36415;SDS011;22447;44.530;18.620;2022-12-15T08:54:59;133.82;;;62.28;;
36415;SDS011;22447;44.530;18.620;2022-12-15T08:57:25;136.82;;;60.25;;
36415;SDS011;22447;44.530;18.620;2022-12-15T08:59:51;146.27;;;66.03;;
36415;SDS011;22447;44.530;18.620;2022-12-15T09:02:17;170.02;;;69.15;;
36415;SDS011;22447;44.530;18.620;2022-12-15T09:04:43;165.30;;;68.00;;
36415;SDS011;22447;44.530;18.620;2022-12-15T09:07:09;159.30;;;69.45;;
36415;SDS011;22447;44.530;18.620;2022-12-15T09:09:35;182.27;;;71.97;;
36415;SDS011;22447;44.530;18.620;2022-12-15T09:12:02;168.15;;;71.50;;
36415;SDS011;22447;44.530;18.620;2022-12-15T09:14:28;148.13;;;65.85;;
36415;SDS011;22447;44.530;18.620;2022-12-15T09:16:54;141.10;;;64.38;;
36415;SDS011;22447;44.530;18.620;2022-12-15T09:19:20;147.50;;;64.60;;
36415;SDS011;22447;44.530;18.620;2022-12-15T09:21:46;153.77;;;67.57;;
36415;SDS011;22447;44.530;18.620;2022-12-15T09:24:12;144.15;;;62.33;;
36415;SDS011;22447;44.530;18.620;2022-12-15T09:26:38;144.80;;;63.58;;
36415;SDS011;22447;44.530;18.620;2022-12-15T09:29:09;143.63;;;63.22;;
36415;SDS011;22447;44.530;18.620;2022-12-15T09:31:36;142.13;;;63.65;;
36415;SDS011;22447;44.530;18.620;2022-12-15T09:34:02;156.32;;;66.75;;
36415;SDS011;22447;44.530;18.620;2022-12-15T09:36:29;162.02;;;65.28;;
36415;SDS011;22447;44.530;18.620;2022-12-15T09:38:57;154.55;;;80.25;;
36415;SDS011;22447;44.530;18.620;2022-12-15T09:41:27;138.75;;;65.43;;
36415;SDS011;22447;44.530;18.620;2022-12-15T09:43:59;135.43;;;61.92;;
36415;SDS011;22447;44.530;18.620;2022-12-15T09:49:04;160.20;;;66.00;;
36415;SDS011;22447;44.530;18.620;2022-12-15T09:51:53;142.02;;;59.65;;
36415;SDS011;22447;44.530;18.620;2022-12-15T09:54:25;152.32;;;63.65;;
36415;SDS011;22447;44.530;18.620;2022-12-15T09:56:56;157.68;;;68.13;;
36415;SDS011;22447;44.530;18.620;2022-12-15T09:59:32;170.73;;;71.82;;
36415;SDS011;22447;44.530;18.620;2022-12-15T10:05:03;147.45;;;61.65;;
36415;SDS011;22447;44.530;18.620;2022-12-15T10:07:41;157.45;;;64.97;;
36415;SDS011;22447;44.530;18.620;2022-12-15T10:10:22;141.05;;;62.97;;
36415;SDS011;22447;44.530;18.620;2022-12-15T10:12:59;167.23;;;68.35;;
36415;SDS011;22447;44.530;18.620;2022-12-15T10:15:30;160.07;;;72.05;;
36415;SDS011;22447;44.530;18.620;2022-12-15T10:18:43;162.07;;;69.47;;
36415;SDS011;22447;44.530;18.620;2022-12-15T10:21:31;166.20;;;69.07;;
36415;SDS011;22447;44.530;18.620;2022-12-15T10:24:08;165.15;;;72.93;;
36415;SDS011;22447;44.530;18.620;2022-12-15T10:26:42;175.52;;;74.60;;
36415;SDS011;22447;44.530;18.620;2022-12-15T10:31:59;190.77;;;79.97;;
36415;SDS011;22447;44.530;18.620;2022-12-15T10:34:33;194.38;;;83.07;;
36415;SDS011;22447;44.530;18.620;2022-12-15T10:37:00;176.15;;;72.95;;
36415;SDS011;22447;44.530;18.620;2022-12-15T10:39:37;183.70;;;74.70;;
36415;SDS011;22447;44.530;18.620;2022-12-15T10:42:12;179.10;;;75.63;;
36415;SDS011;22447;44.530;18.620;2022-12-15T10:44:51;170.75;;;73.13;;
36415;SDS011;22447;44.530;18.620;2022-12-15T10:47:21;181.63;;;76.70;;
36415;SDS011;22447;44.530;18.620;2022-12-15T10:49:52;173.38;;;71.85;;
36415;SDS011;22447;44.530;18.620;2022-12-15T10:52:20;173.95;;;73.05;;
36415;SDS011;22447;44.530;18.620;2022-12-15T10:54:52;168.05;;;72.25;;
36415;SDS011;22447;44.530;18.620;2022-12-15T10:57:28;147.98;;;65.50;;
36415;SDS011;22447;44.530;18.620;2022-12-15T11:02:40;161.73;;;68.78;;
36415;SDS011;22447;44.530;18.620;2022-12-15T11:05:16;167.82;;;72.28;;
36415;SDS011;22447;44.530;18.620;2022-12-15T11:07:51;192.48;;;79.90;;
36415;SDS011;22447;44.530;18.620;2022-12-15T11:10:26;173.15;;;74.18;;
36415;SDS011;22447;44.530;18.620;2022-12-15T11:13:17;172.38;;;71.70;;
36415;SDS011;22447;44.530;18.620;2022-12-15T11:15:47;172.57;;;71.07;;
36415;SDS011;22447;44.530;18.620;2022-12-15T11:21:09;160.98;;;66.28;;
36415;SDS011;22447;44.530;18.620;2022-12-15T11:28:47;177.70;;;74.05;;
36415;SDS011;22447;44.530;18.620;2022-12-15T11:31:34;174.50;;;74.85;;
36415;SDS011;22447;44.530;18.620;2022-12-15T11:34:03;187.35;;;74.50;;
36415;SDS011;22447;44.530;18.620;2022-12-15T11:39:07;169.48;;;68.97;;
36415;SDS011;22447;44.530;18.620;2022-12-15T11:44:32;194.48;;;79.75;;
36415;SDS011;22447;44.530;18.620;2022-12-15T11:50:03;210.70;;;89.32;;
36415;SDS011;22447;44.530;18.620;2022-12-15T11:55:21;238.90;;;93.25;;
36415;SDS011;22447;44.530;18.620;2022-12-15T12:06:15;277.90;;;116.05;;
36415;SDS011;22447;44.530;18.620;2022-12-15T12:08:59;287.20;;;117.78;;
36415;SDS011;22447;44.530;18.620;2022-12-15T12:20:10;250.27;;;102.10;;
36415;SDS011;22447;44.530;18.620;2022-12-15T12:22:40;284.35;;;111.78;;
36415;SDS011;22447;44.530;18.620;2022-12-15T12:25:18;268.80;;;113.65;;
36415;SDS011;22447;44.530;18.620;2022-12-15T12:27:52;273.13;;;108.28;;
36415;SDS011;22447;44.530;18.620;2022-12-15T12:30:37;273.40;;;111.85;;
36415;SDS011;22447;44.530;18.620;2022-12-15T12:33:12;273.52;;;105.32;;
36415;SDS011;22447;44.530;18.620;2022-12-15T12:36:14;254.73;;;102.97;;
36415;SDS011;22447;44.530;18.620;2022-12-15T12:38:42;287.40;;;111.47;;
36415;SDS011;22447;44.530;18.620;2022-12-15T12:41:20;290.50;;;114.78;;
36415;SDS011;22447;44.530;18.620;2022-12-15T12:43:56;277.20;;;115.57;;
36415;SDS011;22447;44.530;18.620;2022-12-15T12:46:33;298.23;;;112.43;;
36415;SDS011;22447;44.530;18.620;2022-12-15T12:49:07;244.88;;;97.40;;
36415;SDS011;22447;44.530;18.620;2022-12-15T12:51:48;257.58;;;107.10;;
36415;SDS011;22447;44.530;18.620;2022-12-15T12:57:46;264.73;;;106.10;;
36415;SDS011;22447;44.530;18.620;2022-12-15T12:59:57;243.27;;;99.13;;
36415;SDS011;22447;44.530;18.620;2022-12-15T13:02:46;238.40;;;100.32;;
36415;SDS011;22447;44.530;18.620;2022-12-15T13:05:29;223.15;;;88.47;;
36415;SDS011;22447;44.530;18.620;2022-12-15T13:08:15;211.60;;;86.93;;
36415;SDS011;22447;44.530;18.620;2022-12-15T13:10:45;204.55;;;84.30;;
36415;SDS011;22447;44.530;18.620;2022-12-15T13:15:57;197.82;;;83.43;;
36415;SDS011;22447;44.530;18.620;2022-12-15T13:19:04;179.35;;;78.10;;
36415;SDS011;22447;44.530;18.620;2022-12-15T13:24:18;219.50;;;84.95;;
36415;SDS011;22447;44.530;18.620;2022-12-15T13:26:49;221.15;;;87.82;;
36415;SDS011;22447;44.530;18.620;2022-12-15T13:29:18;250.65;;;93.78;;
36415;SDS011;22447;44.530;18.620;2022-12-15T13:31:48;254.13;;;93.45;;
36415;SDS011;22447;44.530;18.620;2022-12-15T13:34:17;294.60;;;98.63;;
36415;SDS011;22447;44.530;18.620;2022-12-15T13:36:47;286.20;;;101.22;;
36415;SDS011;22447;44.530;18.620;2022-12-15T13:52:26;280.05;;;100.15;;
36415;SDS011;22447;44.530;18.620;2022-12-15T13:55:00;282.27;;;96.22;;
36415;SDS011;22447;44.530;18.620;2022-12-15T13:57:30;326.05;;;95.75;;
36415;SDS011;22447;44.530;18.620;2022-12-15T14:00:04;323.58;;;102.20;;
36415;SDS011;22447;44.530;18.620;2022-12-15T14:02:44;306.90;;;96.93;;
36415;SDS011;22447;44.530;18.620;2022-12-15T14:07:45;387.50;;;111.90;;
36415;SDS011;22447;44.530;18.620;2022-12-15T14:10:23;267.58;;;99.97;;
36415;SDS011;22447;44.530;18.620;2022-12-15T14:12:50;344.25;;;104.88;;
36415;SDS011;22447;44.530;18.620;2022-12-15T14:15:21;316.17;;;99.05;;
36415;SDS011;22447;44.530;18.620;2022-12-15T14:17:53;358.80;;;101.93;;
36415;SDS011;22447;44.530;18.620;2022-12-15T14:20:24;339.27;;;107.97;;
36415;SDS011;22447;44.530;18.620;2022-12-15T14:22:56;411.67;;;121.90;;
36415;SDS011;22447;44.530;18.620;2022-12-15T14:25:24;498.10;;;135.30;;
36415;SDS011;22447;44.530;18.620;2022-12-15T14:30:24;552.17;;;142.70;;
36415;SDS011;22447;44.530;18.620;2022-12-15T14:32:58;606.05;;;156.23;;
36415;SDS011;22447;44.530;18.620;2022-12-15T14:35:29;754.13;;;163.98;;
36415;SDS011;22447;44.530;18.620;2022-12-15T14:38:00;675.72;;;157.70;;
36415;SDS011;22447;44.530;18.620;2022-12-15T14:40:29;636.00;;;160.07;;
36415;SDS011;22447;44.530;18.620;2022-12-15T14:42:58;801.03;;;168.57;;
36415;SDS011;22447;44.530;18.620;2022-12-15T14:45:25;645.85;;;155.25;;
36415;SDS011;22447;44.530;18.620;2022-12-15T14:47:56;661.75;;;162.25;;
36415;SDS011;22447;44.530;18.620;2022-12-15T14:50:26;947.90;;;182.75;;
36415;SDS011;22447;44.530;18.620;2022-12-15T14:53:03;648.03;;;164.30;;
36415;SDS011;22447;44.530;18.620;2022-12-15T14:55:36;797.58;;;171.68;;
36415;SDS011;22447;44.530;18.620;2022-12-15T15:00:56;708.85;;;165.65;;
36415;SDS011;22447;44.530;18.620;2022-12-15T15:03:32;671.58;;;165.02;;
36415;SDS011;22447;44.530;18.620;2022-12-15T15:08:40;1073.85;;;191.13;;
36415;SDS011;22447;44.530;18.620;2022-12-15T15:13:44;729.20;;;169.25;;
36415;SDS011;22447;44.530;18.620;2022-12-15T15:16:14;727.80;;;168.95;;
36415;SDS011;22447;44.530;18.620;2022-12-15T15:18:43;739.55;;;171.63;;
36415;SDS011;22447;44.530;18.620;2022-12-15T15:21:20;821.35;;;171.02;;
36415;SDS011;22447;44.530;18.620;2022-12-15T15:26:26;759.15;;;183.23;;
36415;SDS011;22447;44.530;18.620;2022-12-15T15:28:53;750.38;;;173.10;;
36415;SDS011;22447;44.530;18.620;2022-12-15T15:31:40;1047.93;;;194.43;;
36415;SDS011;22447;44.530;18.620;2022-12-15T15:34:05;631.80;;;164.45;;
36415;SDS011;22447;44.530;18.620;2022-12-15T15:36:35;586.08;;;150.15;;
36415;SDS011;22447;44.530;18.620;2022-12-15T15:39:07;606.13;;;150.60;;
36415;SDS011;22447;44.530;18.620;2022-12-15T15:41:37;572.72;;;146.07;;
36415;SDS011;22447;44.530;18.620;2022-12-15T15:44:08;506.95;;;141.18;;
36415;SDS011;22447;44.530;18.620;2022-12-15T15:46:39;585.13;;;128.15;;
36415;SDS011;22447;44.530;18.620;2022-12-15T15:49:13;445.63;;;126.45;;
36415;SDS011;22447;44.530;18.620;2022-12-15T15:51:42;514.88;;;121.68;;
36415;SDS011;22447;44.530;18.620;2022-12-15T15:54:19;564.15;;;124.72;;
36415;SDS011;22447;44.530;18.620;2022-12-15T15:56:47;414.20;;;115.85;;
36415;SDS011;22447;44.530;18.620;2022-12-15T15:59:15;524.38;;;118.70;;
36415;SDS011;22447;44.530;18.620;2022-12-15T16:01:43;441.02;;;122.78;;
36415;SDS011;22447;44.530;18.620;2022-12-15T16:04:10;365.35;;;113.43;;
36415;SDS011;22447;44.530;18.620;2022-12-15T16:06:36;508.17;;;127.47;;
36415;SDS011;22447;44.530;18.620;2022-12-15T16:09:02;397.30;;;123.35;;
36415;SDS011;22447;44.530;18.620;2022-12-15T16:11:31;456.40;;;119.70;;
36415;SDS011;22447;44.530;18.620;2022-12-15T16:13:59;310.58;;;98.68;;
36415;SDS011;22447;44.530;18.620;2022-12-15T16:16:26;404.55;;;103.97;;
36415;SDS011;22447;44.530;18.620;2022-12-15T16:18:56;504.10;;;123.30;;
36415;SDS011;22447;44.530;18.620;2022-12-15T16:21:24;543.70;;;117.10;;